Canutillo, Texas
Current Conditions -  °F | °C
As of 10:58 AM on Sunday 25 Jan 2015 (Local Time) from KBIF Reporting Station
Clear Clear  
Wind Chill: 52°   Ceiling: Unl
Heat Index: 52°   Visibility: 7mi
Dew Point: 25°   Wind: 6mph
Humidity: 35%   Direction: 10°N
Pressure: 30.3"   Gusts: NA
Location:  31.91°N, 106.6°W
Report Text: KBIF 251758Z AUTO 01005KT 7SM CLR 11/M04 A3030 RMK AO2 SLP245 T01101041 10110 21035 51017 $
Loading
Personal Weather Stations






























Interactive Weather Map New forecast layout! Learn more

10-Day Weather Forecast

Advertisements
Track Severe Weather on mobile